createdAt,value
2019-04-30T00:00:55.811Z,0.00
2019-04-30T00:01:59.038Z,0.00
2019-04-30T00:02:55.773Z,0.00
2019-04-30T00:03:59.383Z,0.00
2019-04-30T00:04:55.757Z,0.00
2019-04-30T00:05:57.497Z,0.00
2019-04-30T00:06:55.777Z,0.00
2019-04-30T00:07:58.478Z,0.00
2019-04-30T00:08:57.707Z,0.00
2019-04-30T00:09:57.593Z,0.00
2019-04-30T00:10:55.700Z,0.00
2019-04-30T00:12:01.015Z,0.00
2019-04-30T00:12:56.671Z,0.00
2019-04-30T00:13:58.694Z,0.00
2019-04-30T00:14:55.637Z,0.00
2019-04-30T00:16:00.141Z,0.00
2019-04-30T00:16:56.624Z,0.00
2019-04-30T00:18:00.221Z,0.00
2019-04-30T00:19:00.445Z,0.00
2019-04-30T00:19:59.839Z,0.00
2019-04-30T00:20:55.591Z,0.00
2019-04-30T00:22:00.122Z,0.00
2019-04-30T00:22:56.547Z,0.00
2019-04-30T00:23:56.144Z,0.00
2019-04-30T00:24:55.751Z,0.00
2019-04-30T00:25:58.327Z,0.00
2019-04-30T00:26:56.516Z,0.00
2019-04-30T00:27:55.981Z,0.00
2019-04-30T00:28:55.535Z,0.00
2019-04-30T00:29:55.852Z,0.00
2019-04-30T00:30:56.198Z,0.00
2019-04-30T00:31:57.627Z,0.00
2019-04-30T00:32:56.426Z,0.00
2019-04-30T00:33:57.833Z,0.00
2019-04-30T00:34:55.647Z,0.00
2019-04-30T00:35:58.007Z,0.00
2019-04-30T00:36:56.002Z,0.00
2019-04-30T00:37:57.614Z,0.00
2019-04-30T00:38:55.369Z,0.00
2019-04-30T00:39:55.666Z,0.00
2019-04-30T00:40:55.801Z,0.00
2019-04-30T00:41:56.708Z,0.00
2019-04-30T00:42:55.945Z,0.00
2019-04-30T00:43:55.311Z,0.00
2019-04-30T00:44:55.535Z,0.00
2019-04-30T00:45:55.382Z,0.00
2019-04-30T00:46:55.886Z,0.00
2019-04-30T00:47:55.975Z,0.00
2019-04-30T00:48:56.794Z,0.00
2019-04-30T00:49:57.523Z,0.00
2019-04-30T00:50:55.786Z,0.00
2019-04-30T00:51:58.168Z,0.00
2019-04-30T00:52:55.549Z,0.00
2019-04-30T00:53:55.795Z,0.00
2019-04-30T00:54:55.383Z,0.00
2019-04-30T00:55:55.599Z,0.00
2019-04-30T00:56:59.340Z,0.00
2019-04-30T00:57:56.149Z,0.00
2019-04-30T00:58:57.750Z,0.00
2019-04-30T00:59:56.119Z,0.00
2019-04-30T01:00:55.503Z,0.00
2019-04-30T01:01:56.331Z,0.00
2019-04-30T01:02:55.579Z,0.00
2019-04-30T01:03:55.820Z,0.00
2019-04-30T01:04:59.286Z,0.00
2019-04-30T01:05:56.062Z,0.00
2019-04-30T01:06:59.914Z,0.00
2019-04-30T01:07:55.128Z,0.00
2019-04-30T01:08:58.251Z,0.00
2019-04-30T01:09:56.014Z,0.00
2019-04-30T01:10:55.588Z,0.00
2019-04-30T01:11:55.349Z,0.00
2019-04-30T01:12:59.783Z,0.00
2019-04-30T01:13:55.966Z,0.00
2019-04-30T01:14:56.996Z,0.00
2019-04-30T01:15:54.937Z,0.00
2019-04-30T01:16:54.940Z,0.00
2019-04-30T01:17:54.968Z,0.00
2019-04-30T01:18:54.929Z,0.00
2019-04-30T01:19:54.998Z,0.00
2019-04-30T01:20:54.890Z,0.00
2019-04-30T01:21:54.899Z,0.00
2019-04-30T01:22:54.861Z,0.00
2019-04-30T01:23:54.971Z,0.00
2019-04-30T01:24:54.841Z,0.00
2019-04-30T01:25:54.904Z,0.00
2019-04-30T01:26:54.811Z,0.00
2019-04-30T01:27:54.812Z,0.00
2019-04-30T01:29:00.554Z,0.00
2019-04-30T01:29:55.774Z,0.00
2019-04-30T01:30:58.814Z,0.00
2019-04-30T01:31:55.754Z,0.00
2019-04-30T01:32:56.659Z,0.00
2019-04-30T01:33:54.735Z,0.00
2019-04-30T01:34:54.817Z,0.00
2019-04-30T01:35:54.717Z,0.00
2019-04-30T01:36:54.756Z,0.00
2019-04-30T01:37:54.707Z,0.00
2019-04-30T01:38:54.681Z,0.00
2019-04-30T01:39:54.758Z,0.00
2019-04-30T01:40:54.683Z,0.00
2019-04-30T01:41:54.689Z,0.00
2019-04-30T01:42:54.650Z,0.00
2019-04-30T01:43:54.630Z,0.00
2019-04-30T01:44:54.610Z,0.00
2019-04-30T01:45:54.661Z,0.00
2019-04-30T01:46:54.582Z,0.00
2019-04-30T01:48:00.715Z,0.00
2019-04-30T01:48:55.572Z,0.00
2019-04-30T01:49:56.001Z,0.00
2019-04-30T01:50:55.555Z,0.00
2019-04-30T01:51:57.281Z,0.00
2019-04-30T01:52:54.545Z,0.00
2019-04-30T01:53:54.605Z,0.00
2019-04-30T01:54:54.495Z,0.00
2019-04-30T01:55:54.545Z,0.00
2019-04-30T01:56:54.466Z,0.00
2019-04-30T01:57:54.517Z,0.00
2019-04-30T01:58:54.457Z,0.00
2019-04-30T01:59:54.447Z,0.00
2019-04-30T02:00:54.427Z,0.00
2019-04-30T02:01:54.448Z,0.00
2019-04-30T02:02:54.429Z,0.00
2019-04-30T02:03:54.492Z,0.00
2019-04-30T02:04:54.379Z,0.00
2019-04-30T02:05:54.371Z,0.00
2019-04-30T02:06:54.381Z,0.00
2019-04-30T02:07:54.461Z,0.00
2019-04-30T02:08:54.351Z,0.00
2019-04-30T02:09:54.392Z,0.00
2019-04-30T02:10:54.363Z,0.00
2019-04-30T02:11:54.314Z,0.00
2019-04-30T02:12:54.394Z,0.00
2019-04-30T02:13:54.295Z,0.00
2019-04-30T02:14:54.338Z,0.00
2019-04-30T02:15:54.257Z,0.00
2019-04-30T02:16:54.248Z,0.00
2019-04-30T02:17:54.347Z,0.00
2019-04-30T02:18:54.246Z,0.00
2019-04-30T02:19:56.827Z,0.00
2019-04-30T02:20:54.200Z,0.00
2019-04-30T02:21:54.198Z,0.00
2019-04-30T02:22:54.179Z,0.00
2019-04-30T02:23:54.289Z,0.00
2019-04-30T02:24:54.149Z,0.00
2019-04-30T02:25:55.209Z,0.00
2019-04-30T02:26:54.142Z,0.00
2019-04-30T02:27:54.221Z,0.00
2019-04-30T02:28:54.123Z,0.00
2019-04-30T02:29:54.161Z,0.00
2019-04-30T02:30:54.103Z,0.00
2019-04-30T02:31:54.098Z,0.00
2019-04-30T02:32:54.164Z,0.00
2019-04-30T02:33:54.077Z,0.00
2019-04-30T02:34:55.115Z,0.00
2019-04-30T02:35:54.034Z,0.00
2019-04-30T02:36:54.135Z,0.00
2019-04-30T02:37:54.023Z,0.00
2019-04-30T02:38:54.106Z,0.00
2019-04-30T02:39:53.991Z,0.00
2019-04-30T02:40:54.026Z,0.00
2019-04-30T02:41:53.971Z,0.00
2019-04-30T02:42:54.039Z,0.00
2019-04-30T02:43:54.050Z,0.00
2019-04-30T02:44:53.940Z,0.00
2019-04-30T02:45:53.940Z,0.00
2019-04-30T02:46:53.901Z,0.00
2019-04-30T02:47:53.985Z,0.00
2019-04-30T02:48:53.913Z,0.00
2019-04-30T02:49:53.872Z,0.00
2019-04-30T02:50:53.891Z,0.00
2019-04-30T02:51:53.842Z,0.00
2019-04-30T02:52:53.923Z,0.00
2019-04-30T02:53:53.844Z,0.00
2019-04-30T02:54:53.813Z,0.00
2019-04-30T02:55:53.816Z,0.00
2019-04-30T02:56:53.895Z,0.00
2019-04-30T02:57:53.775Z,0.00
2019-04-30T02:58:53.877Z,0.00
2019-04-30T02:59:53.767Z,0.00
2019-04-30T03:00:53.767Z,0.00
2019-04-30T03:01:53.728Z,0.00
2019-04-30T03:02:53.808Z,0.00
2019-04-30T03:03:53.771Z,0.00
2019-04-30T03:04:53.739Z,0.00
2019-04-30T03:05:53.689Z,0.00
2019-04-30T03:06:53.780Z,0.00
2019-04-30T03:07:53.718Z,0.00
2019-04-30T03:08:53.711Z,0.00
2019-04-30T03:09:53.651Z,0.00
2019-04-30T03:10:53.633Z,0.00
2019-04-30T03:11:53.632Z,0.00
2019-04-30T03:12:53.690Z,0.00
2019-04-30T03:13:53.593Z,0.00
2019-04-30T03:14:53.674Z,0.00
2019-04-30T03:15:53.587Z,0.00
2019-04-30T03:16:53.579Z,0.00
2019-04-30T03:17:53.558Z,0.00
2019-04-30T03:18:53.595Z,0.00
2019-04-30T03:19:53.557Z,0.00
2019-04-30T03:20:53.628Z,0.00
2019-04-30T03:21:53.613Z,0.00
2019-04-30T03:22:53.508Z,0.00
2019-04-30T03:23:53.547Z,0.00
2019-04-30T03:24:53.489Z,0.00
2019-04-30T03:25:54.498Z,0.00
2019-04-30T03:26:53.471Z,0.00
2019-04-30T03:27:53.499Z,0.00
2019-04-30T03:28:53.420Z,0.00
2019-04-30T03:29:53.490Z,0.00
2019-04-30T03:30:57.678Z,0.00
2019-04-30T03:31:55.428Z,0.00
2019-04-30T03:32:57.030Z,0.00
2019-04-30T03:33:53.381Z,0.00
2019-04-30T03:34:53.435Z,0.00
2019-04-30T03:35:54.926Z,0.00
2019-04-30T03:36:53.444Z,0.00
2019-04-30T03:37:53.324Z,0.00
2019-04-30T03:38:53.364Z,0.00
2019-04-30T03:39:53.315Z,0.00
2019-04-30T03:40:54.316Z,0.00
2019-04-30T03:41:53.286Z,0.00
2019-04-30T03:42:53.337Z,5.62
2019-04-30T03:43:53.297Z,5.62
2019-04-30T03:44:53.258Z,5.62
2019-04-30T03:45:53.341Z,5.62
2019-04-30T03:46:53.218Z,5.62
2019-04-30T03:47:53.278Z,5.62
2019-04-30T03:48:53.229Z,11.25
2019-04-30T03:49:53.212Z,11.25
2019-04-30T03:50:56.885Z,11.25
2019-04-30T03:51:53.160Z,11.25
2019-04-30T03:52:53.217Z,16.88
2019-04-30T03:53:53.163Z,16.88
2019-04-30T03:54:53.142Z,16.88
2019-04-30T03:55:54.142Z,16.88
2019-04-30T03:56:53.116Z,22.50
2019-04-30T03:57:54.183Z,22.50
2019-04-30T03:58:53.087Z,22.50
2019-04-30T03:59:53.090Z,28.12
2019-04-30T04:00:53.066Z,28.12
2019-04-30T04:01:53.136Z,28.12
2019-04-30T04:02:53.036Z,28.12
2019-04-30T04:03:53.066Z,33.75
2019-04-30T04:04:53.041Z,33.75
2019-04-30T04:05:53.017Z,39.38
2019-04-30T04:06:54.098Z,39.38
2019-04-30T04:07:53.292Z,45.00
2019-04-30T04:08:53.009Z,45.00
2019-04-30T04:09:52.960Z,50.62
2019-04-30T04:10:53.295Z,50.62
2019-04-30T04:11:52.932Z,56.25
2019-04-30T04:12:52.981Z,56.25
2019-04-30T04:13:52.917Z,61.88
2019-04-30T04:14:53.011Z,61.88
2019-04-30T04:15:52.915Z,67.50
2019-04-30T04:16:52.883Z,73.12
2019-04-30T04:17:53.944Z,78.75
2019-04-30T04:18:52.875Z,78.75
2019-04-30T04:19:52.956Z,84.38
2019-04-30T04:21:07.500Z,84.38
2019-04-30T04:21:53.814Z,84.38
2019-04-30T04:22:52.854Z,90.00
2019-04-30T04:23:52.804Z,95.62
2019-04-30T04:24:52.911Z,95.62
2019-04-30T04:25:52.788Z,101.25
2019-04-30T04:26:53.862Z,101.25
2019-04-30T04:27:52.762Z,106.88
2019-04-30T04:28:53.787Z,112.50
2019-04-30T04:29:52.733Z,112.50
2019-04-30T04:30:52.854Z,118.12
2019-04-30T04:31:52.720Z,123.75
2019-04-30T04:32:52.704Z,123.75
2019-04-30T04:33:52.893Z,129.38
2019-04-30T04:34:52.782Z,129.38
2019-04-30T04:35:52.681Z,135.00
2019-04-30T04:36:52.712Z,140.62
2019-04-30T04:37:52.644Z,140.62
2019-04-30T04:38:53.673Z,146.25
2019-04-30T04:39:52.623Z,146.25
2019-04-30T04:40:53.654Z,151.88
2019-04-30T04:41:52.594Z,151.88
2019-04-30T04:42:52.624Z,157.50
2019-04-30T04:43:52.585Z,163.12
2019-04-30T04:44:52.656Z,163.12
2019-04-30T04:45:52.576Z,168.75
2019-04-30T04:46:52.595Z,180.00
2019-04-30T04:47:52.546Z,185.62
2019-04-30T04:48:52.517Z,202.50
2019-04-30T04:49:53.822Z,219.38
2019-04-30T04:50:52.619Z,219.38
2019-04-30T04:51:52.486Z,208.12
2019-04-30T04:52:52.509Z,208.12
2019-04-30T04:53:52.459Z,219.38
2019-04-30T04:54:52.469Z,225.00
2019-04-30T04:55:52.550Z,230.62
2019-04-30T04:56:54.776Z,236.25
2019-04-30T04:57:53.422Z,230.62
2019-04-30T04:58:52.521Z,219.38
2019-04-30T04:59:52.484Z,208.12
2019-04-30T05:00:52.393Z,213.75
2019-04-30T05:01:52.423Z,219.38
2019-04-30T05:02:52.366Z,219.38
2019-04-30T05:03:53.374Z,225.00
2019-04-30T05:04:52.345Z,230.62
2019-04-30T05:05:52.445Z,230.62
2019-04-30T05:06:52.318Z,236.25
2019-04-30T05:07:52.326Z,241.88
2019-04-30T05:08:52.286Z,247.50
2019-04-30T05:09:52.372Z,253.12
2019-04-30T05:10:52.378Z,258.75
2019-04-30T05:11:52.270Z,258.75
2019-04-30T05:12:52.268Z,258.75
2019-04-30T05:13:52.239Z,264.38
2019-04-30T05:14:52.298Z,258.75
2019-04-30T05:15:52.259Z,258.75
2019-04-30T05:16:52.249Z,258.75
2019-04-30T05:17:52.190Z,270.00
2019-04-30T05:18:52.271Z,270.00
2019-04-30T05:19:52.162Z,270.00
2019-04-30T05:20:52.213Z,270.00
2019-04-30T05:21:52.163Z,275.62
2019-04-30T05:22:52.143Z,275.62
2019-04-30T05:23:52.113Z,281.25
2019-04-30T05:24:53.214Z,286.88
2019-04-30T05:25:52.105Z,286.88
2019-04-30T05:26:52.103Z,286.88
2019-04-30T05:27:52.074Z,292.50
2019-04-30T05:28:54.107Z,292.50
2019-04-30T05:29:52.058Z,298.12
2019-04-30T05:30:52.096Z,298.12
2019-04-30T05:31:52.037Z,303.75
2019-04-30T05:32:52.028Z,309.38
2019-04-30T05:33:51.997Z,315.00
2019-04-30T05:34:52.068Z,320.62
2019-04-30T05:35:51.991Z,320.62
2019-04-30T05:36:52.050Z,326.25
2019-04-30T05:37:51.962Z,331.88
2019-04-30T05:38:52.030Z,331.88
2019-04-30T05:39:51.940Z,337.50
2019-04-30T05:40:51.972Z,343.12
2019-04-30T05:41:51.931Z,343.12
2019-04-30T05:42:52.012Z,348.75
2019-04-30T05:43:51.896Z,348.75
2019-04-30T05:44:51.955Z,354.38
2019-04-30T05:45:51.864Z,360.00
2019-04-30T05:46:51.923Z,365.62
2019-04-30T05:47:51.865Z,365.62
2019-04-30T05:48:51.834Z,371.25
2019-04-30T05:49:51.885Z,376.88
2019-04-30T05:50:51.912Z,388.12
2019-04-30T05:51:55.450Z,393.75
2019-04-30T05:52:51.788Z,388.12
2019-04-30T05:53:51.858Z,388.12
2019-04-30T05:54:51.777Z,393.75
2019-04-30T05:55:51.800Z,399.38
2019-04-30T05:56:51.758Z,399.38
2019-04-30T05:57:55.204Z,405.00
2019-04-30T05:58:51.730Z,410.62
2019-04-30T05:59:51.722Z,421.88
2019-04-30T06:00:51.730Z,433.12
2019-04-30T06:01:51.702Z,433.12
2019-04-30T06:02:51.771Z,433.12
2019-04-30T06:03:51.672Z,444.38
2019-04-30T06:04:51.652Z,444.38
2019-04-30T06:05:51.653Z,478.12
2019-04-30T06:06:51.693Z,939.38
2019-04-30T06:07:52.180Z,1372.50
2019-04-30T06:08:51.674Z,1558.12
2019-04-30T06:09:51.594Z,1681.88
2019-04-30T06:10:51.921Z,1687.50
2019-04-30T06:11:51.585Z,1845.00
2019-04-30T06:12:51.645Z,1895.62
2019-04-30T06:13:51.557Z,1935.00
2019-04-30T06:14:52.607Z,1951.88
2019-04-30T06:15:51.538Z,1974.38
2019-04-30T06:16:51.745Z,1957.50
2019-04-30T06:17:59.691Z,1996.88
2019-04-30T06:18:52.500Z,1996.88
2019-04-30T06:19:51.736Z,2058.75
2019-04-30T06:20:51.470Z,2075.62
2019-04-30T06:21:51.501Z,2081.25
2019-04-30T06:22:52.200Z,1878.75
2019-04-30T06:23:51.491Z,2115.00
2019-04-30T06:24:51.421Z,2160.00
2019-04-30T06:25:57.522Z,2165.62
2019-04-30T06:26:52.426Z,2171.25
2019-04-30T06:27:51.473Z,2210.62
2019-04-30T06:28:51.354Z,2250.00
2019-04-30T06:29:51.413Z,2295.00
2019-04-30T06:30:51.355Z,2283.75
2019-04-30T06:31:51.386Z,2278.12
2019-04-30T06:32:51.358Z,2311.88
2019-04-30T06:33:51.377Z,2351.25
2019-04-30T06:34:51.326Z,2317.50
2019-04-30T06:35:51.409Z,2379.38
2019-04-30T06:36:53.795Z,2345.62
2019-04-30T06:37:51.301Z,2407.50
2019-04-30T06:38:51.320Z,1440.00
2019-04-30T06:39:51.250Z,2323.12
2019-04-30T06:40:51.360Z,2508.75
2019-04-30T06:41:51.241Z,2503.12
2019-04-30T06:42:51.231Z,2497.50
2019-04-30T06:43:51.202Z,2520.00
2019-04-30T06:44:52.256Z,2514.38
2019-04-30T06:45:51.440Z,2491.88
2019-04-30T06:46:51.264Z,2525.62
2019-04-30T06:47:51.184Z,2390.62
2019-04-30T06:48:51.158Z,2520.00
2019-04-30T06:49:51.135Z,2525.62
2019-04-30T06:50:51.236Z,2542.50
2019-04-30T06:51:51.126Z,2435.62
2019-04-30T06:52:56.882Z,2525.62
2019-04-30T06:53:52.087Z,2565.00
2019-04-30T06:54:51.127Z,2604.38
2019-04-30T06:55:51.080Z,2604.38
2019-04-30T06:56:51.140Z,2626.88
2019-04-30T06:57:51.147Z,2598.75
2019-04-30T06:58:52.676Z,2604.38
2019-04-30T06:59:51.546Z,2626.88
2019-04-30T07:00:51.112Z,2621.25
2019-04-30T07:01:51.002Z,2638.12
2019-04-30T07:02:52.127Z,2610.00
2019-04-30T07:03:50.983Z,2587.50
2019-04-30T07:04:50.963Z,2615.62
2019-04-30T07:05:50.954Z,2615.62
2019-04-30T07:06:51.034Z,2621.25
2019-04-30T07:07:53.321Z,2615.62
2019-04-30T07:08:55.714Z,2610.00
2019-04-30T07:09:58.020Z,2621.25
2019-04-30T07:10:55.650Z,2615.62
2019-04-30T07:11:52.003Z,2649.38
2019-04-30T07:12:50.888Z,2643.75
2019-04-30T07:13:52.130Z,2655.00
2019-04-30T07:14:50.870Z,2638.12
2019-04-30T07:15:50.839Z,2626.88
2019-04-30T07:16:50.830Z,2593.12
2019-04-30T07:17:50.923Z,2615.62
2019-04-30T07:18:50.822Z,2486.25
2019-04-30T07:19:56.390Z,2615.62
2019-04-30T07:20:51.804Z,2598.75
2019-04-30T07:21:50.786Z,2610.00
2019-04-30T07:22:58.862Z,2621.25
2019-04-30T07:23:51.764Z,2581.88
2019-04-30T07:24:50.855Z,2581.88
2019-04-30T07:25:51.640Z,2576.25
2019-04-30T07:26:54.614Z,2570.62
2019-04-30T07:27:51.728Z,2531.25
2019-04-30T07:28:54.774Z,2536.88
2019-04-30T07:29:50.688Z,2536.88
2019-04-30T07:31:07.184Z,2553.75
2019-04-30T07:31:51.871Z,2542.50
2019-04-30T07:32:50.711Z,2536.88
2019-04-30T07:33:53.703Z,2520.00
2019-04-30T07:34:50.731Z,2497.50
2019-04-30T07:35:50.632Z,2514.38
2019-04-30T07:37:10.386Z,2520.00
2019-04-30T07:37:54.656Z,2525.62
2019-04-30T07:38:56.137Z,2520.00
2019-04-30T07:39:51.604Z,2525.62
2019-04-30T07:40:50.569Z,2525.62
2019-04-30T07:41:50.608Z,2520.00
2019-04-30T07:42:50.556Z,2542.50
2019-04-30T07:43:50.557Z,2525.62
2019-04-30T07:44:50.517Z,2536.88
2019-04-30T07:45:50.578Z,2553.75
2019-04-30T07:46:50.511Z,2565.00
2019-04-30T07:47:50.519Z,2610.00
2019-04-30T07:48:50.502Z,2632.50
2019-04-30T07:49:55.084Z,2643.75
2019-04-30T07:50:52.259Z,2683.12
2019-04-30T07:51:51.853Z,2700.00
2019-04-30T07:53:01.553Z,2756.25
2019-04-30T07:53:51.446Z,2795.62
2019-04-30T07:54:51.958Z,2846.25
2019-04-30T07:55:50.408Z,2846.25
2019-04-30T07:56:50.861Z,2891.25
2019-04-30T07:57:50.842Z,2998.12
2019-04-30T07:58:52.477Z,3015.00
2019-04-30T07:59:50.358Z,3037.50
2019-04-30T08:00:55.429Z,3065.62
2019-04-30T08:02:06.277Z,3161.25
2019-04-30T08:02:51.317Z,3183.75
2019-04-30T08:03:52.759Z,3189.38
2019-04-30T08:04:51.449Z,3268.12
2019-04-30T08:05:50.292Z,3313.12
2019-04-30T08:06:50.338Z,3352.50
2019-04-30T08:07:50.355Z,3391.88
2019-04-30T08:08:52.748Z,3420.00
2019-04-30T08:09:51.342Z,3436.88
2019-04-30T08:10:51.033Z,3465.00
2019-04-30T08:11:50.214Z,3504.38
2019-04-30T08:12:51.146Z,3571.88
2019-04-30T08:13:50.856Z,3560.62
2019-04-30T08:14:50.207Z,3566.25
2019-04-30T08:15:52.276Z,3639.38
2019-04-30T08:16:51.102Z,3690.00
2019-04-30T08:18:02.193Z,3690.00
2019-04-30T08:18:51.139Z,3740.62
2019-04-30T08:19:50.249Z,3808.12
2019-04-30T08:20:50.109Z,3836.25
2019-04-30T08:21:50.129Z,3898.12
2019-04-30T08:22:50.102Z,3498.75
2019-04-30T08:23:50.077Z,3954.38
2019-04-30T08:24:50.181Z,3976.88
2019-04-30T08:25:50.051Z,3999.38
2019-04-30T08:26:50.074Z,4016.25
2019-04-30T08:27:50.024Z,4083.75
2019-04-30T08:28:50.016Z,4072.50
2019-04-30T08:29:50.171Z,4128.75
2019-04-30T08:30:50.007Z,4140.00
2019-04-30T08:31:51.037Z,4128.75
2019-04-30T08:32:50.160Z,4156.88
2019-04-30T08:33:49.969Z,4275.00
2019-04-30T08:34:50.261Z,4612.50
2019-04-30T08:35:50.159Z,4781.25
2019-04-30T08:36:51.528Z,4820.62
2019-04-30T08:37:49.920Z,4848.75
2019-04-30T08:38:49.991Z,4899.38
2019-04-30T08:39:49.938Z,4899.38
2019-04-30T08:40:56.014Z,4871.25
2019-04-30T08:41:50.863Z,4916.25
2019-04-30T08:42:49.963Z,4921.88
2019-04-30T08:43:49.873Z,4938.75
2019-04-30T08:44:49.854Z,4927.50
2019-04-30T08:45:49.826Z,4905.00
2019-04-30T08:46:49.836Z,4927.50
2019-04-30T08:47:49.797Z,4910.62
2019-04-30T08:48:53.600Z,4938.75
2019-04-30T08:49:50.420Z,4916.25
2019-04-30T08:50:50.258Z,4950.00
2019-04-30T08:51:50.273Z,5011.88
2019-04-30T08:52:50.196Z,5017.50
2019-04-30T08:53:49.810Z,5096.25
2019-04-30T08:54:49.774Z,5186.25
2019-04-30T08:55:49.722Z,5259.38
2019-04-30T08:56:50.398Z,5270.62
2019-04-30T08:57:50.128Z,5411.25
2019-04-30T08:58:49.686Z,5523.75
2019-04-30T08:59:49.764Z,5484.38
2019-04-30T09:00:49.655Z,5355.00
2019-04-30T09:01:49.656Z,5321.25
2019-04-30T09:02:49.645Z,5371.88
2019-04-30T09:03:51.330Z,5371.88
2019-04-30T09:04:49.627Z,5349.38
2019-04-30T09:05:49.998Z,5433.75
2019-04-30T09:06:49.762Z,5495.62
2019-04-30T09:07:49.576Z,5608.12
2019-04-30T09:08:49.640Z,5664.38
2019-04-30T09:09:49.580Z,5641.88
2019-04-30T09:10:49.571Z,5625.00
2019-04-30T09:11:55.209Z,5439.38
2019-04-30T09:12:52.007Z,5810.62
2019-04-30T09:13:49.521Z,5844.38
2019-04-30T09:14:49.585Z,5928.75
2019-04-30T09:15:49.483Z,5940.00
2019-04-30T09:16:51.391Z,5934.38
2019-04-30T09:18:00.826Z,6024.38
2019-04-30T09:18:50.455Z,6193.12
2019-04-30T09:19:50.549Z,6091.88
2019-04-30T09:20:49.643Z,5923.12
2019-04-30T09:21:49.518Z,6013.12
2019-04-30T09:22:49.674Z,6226.88
2019-04-30T09:23:52.458Z,6575.62
2019-04-30T09:24:49.803Z,6856.88
2019-04-30T09:25:49.812Z,6868.12
2019-04-30T09:26:49.432Z,6727.50
2019-04-30T09:27:49.430Z,6418.12
2019-04-30T09:28:49.545Z,6525.00
2019-04-30T09:29:49.428Z,6277.50
2019-04-30T09:30:49.443Z,6311.25
2019-04-30T09:31:49.448Z,6558.75
2019-04-30T09:32:49.953Z,5827.50
2019-04-30T09:33:49.433Z,4764.38
2019-04-30T09:34:49.285Z,4725.00
2019-04-30T09:35:49.621Z,4758.75
2019-04-30T09:36:49.361Z,4747.50
2019-04-30T09:37:49.749Z,4674.38
2019-04-30T09:38:50.238Z,4764.38
2019-04-30T09:39:49.612Z,4781.25
2019-04-30T09:40:50.773Z,4741.88
2019-04-30T09:41:50.212Z,4764.38
2019-04-30T09:42:49.181Z,4730.62
2019-04-30T09:43:49.468Z,4736.25
2019-04-30T09:44:49.450Z,4730.62
2019-04-30T09:45:49.795Z,4730.62
2019-04-30T09:46:49.143Z,4736.25
2019-04-30T09:47:50.559Z,4741.88
2019-04-30T09:48:50.874Z,4747.50
2019-04-30T09:49:49.510Z,4736.25
2019-04-30T09:50:50.056Z,4753.12
2019-04-30T09:51:49.662Z,4736.25
2019-04-30T09:52:49.701Z,4719.38
2019-04-30T09:53:56.888Z,4235.62
2019-04-30T09:54:50.804Z,1890.00
2019-04-30T09:55:49.646Z,556.88
2019-04-30T09:56:49.651Z,517.50
2019-04-30T09:57:49.021Z,495.00
2019-04-30T09:58:49.294Z,489.38
2019-04-30T09:59:49.005Z,483.75
2019-04-30T10:00:50.343Z,478.12
2019-04-30T10:01:48.982Z,478.12
2019-04-30T10:02:49.073Z,478.12
2019-04-30T10:03:50.519Z,472.50
2019-04-30T10:04:49.454Z,466.88
2019-04-30T10:05:49.198Z,466.88
2019-04-30T10:06:50.192Z,466.88
2019-04-30T10:07:49.383Z,461.25
2019-04-30T10:08:51.267Z,455.62
2019-04-30T10:09:50.881Z,450.00
2019-04-30T10:10:48.880Z,450.00
2019-04-30T10:11:50.069Z,444.38
2019-04-30T10:12:49.349Z,444.38
2019-04-30T10:13:48.830Z,444.38
2019-04-30T10:14:49.409Z,444.38
2019-04-30T10:15:50.182Z,438.75
2019-04-30T10:16:49.507Z,438.75
2019-04-30T10:17:49.872Z,433.12
2019-04-30T10:18:48.793Z,433.12
2019-04-30T10:19:49.266Z,433.12
2019-04-30T10:20:48.764Z,433.12
2019-04-30T10:21:49.072Z,433.12
2019-04-30T10:22:49.535Z,433.12
2019-04-30T10:23:49.887Z,427.50
2019-04-30T10:24:49.429Z,427.50
2019-04-30T10:25:48.697Z,427.50
2019-04-30T10:26:48.799Z,427.50
2019-04-30T10:27:49.788Z,427.50
2019-04-30T10:28:48.709Z,421.88
2019-04-30T10:29:49.321Z,421.88
2019-04-30T10:30:48.640Z,416.25
2019-04-30T10:31:49.031Z,416.25
2019-04-30T10:32:50.059Z,416.25
2019-04-30T10:33:48.681Z,410.62
2019-04-30T10:34:48.702Z,410.62
2019-04-30T10:35:49.603Z,410.62
2019-04-30T10:36:49.474Z,405.00
2019-04-30T10:37:48.627Z,405.00
2019-04-30T10:38:49.421Z,405.00
2019-04-30T10:39:49.092Z,405.00
2019-04-30T10:40:48.810Z,405.00
2019-04-30T10:41:48.528Z,399.38
2019-04-30T10:42:48.905Z,399.38
2019-04-30T10:43:49.220Z,399.38
2019-04-30T10:44:48.499Z,399.38
2019-04-30T10:45:49.515Z,393.75
2019-04-30T10:46:48.520Z,399.38
2019-04-30T10:47:49.227Z,393.75
2019-04-30T10:48:48.432Z,393.75
2019-04-30T10:49:48.729Z,393.75
2019-04-30T10:50:49.215Z,393.75
2019-04-30T10:51:48.473Z,393.75
2019-04-30T10:52:49.137Z,393.75
2019-04-30T10:53:48.605Z,388.12
2019-04-30T10:54:49.600Z,388.12
2019-04-30T10:55:48.662Z,388.12
2019-04-30T10:56:49.028Z,382.50
2019-04-30T10:57:49.518Z,382.50
2019-04-30T10:58:48.335Z,382.50
2019-04-30T10:59:48.738Z,382.50
2019-04-30T11:00:49.871Z,376.88
2019-04-30T11:01:49.333Z,376.88
2019-04-30T11:02:49.681Z,376.88
2019-04-30T11:03:48.380Z,376.88
2019-04-30T11:04:48.271Z,376.88
2019-04-30T11:05:48.813Z,376.88
2019-04-30T11:06:48.262Z,376.88
2019-04-30T11:07:49.507Z,371.25
2019-04-30T11:08:48.205Z,371.25
2019-04-30T11:09:49.343Z,371.25
2019-04-30T11:10:48.254Z,371.25
2019-04-30T11:11:49.713Z,371.25
2019-04-30T11:12:49.252Z,371.25
2019-04-30T11:13:48.147Z,371.25
2019-04-30T11:14:48.153Z,371.25
2019-04-30T11:15:49.186Z,371.25
2019-04-30T11:16:51.214Z,371.25
2019-04-30T11:17:49.603Z,365.62
2019-04-30T11:18:48.444Z,365.62
2019-04-30T11:19:49.299Z,365.62
2019-04-30T11:20:49.783Z,365.62
2019-04-30T11:21:48.306Z,365.62
2019-04-30T11:22:48.193Z,365.62
2019-04-30T11:23:49.482Z,365.62
2019-04-30T11:24:58.351Z,365.62
2019-04-30T11:25:51.141Z,365.62
2019-04-30T11:26:50.181Z,365.62
2019-04-30T11:27:50.415Z,365.62
2019-04-30T11:28:48.131Z,365.62
2019-04-30T11:29:49.466Z,365.62
2019-04-30T11:30:48.149Z,365.62
2019-04-30T11:31:48.217Z,360.00
2019-04-30T11:32:48.184Z,360.00
2019-04-30T11:33:48.346Z,360.00
2019-04-30T11:34:47.981Z,360.00
2019-04-30T11:35:56.552Z,360.00
2019-04-30T11:36:48.911Z,365.62
2019-04-30T11:37:47.931Z,360.00
2019-04-30T11:38:48.753Z,360.00
2019-04-30T11:39:47.923Z,360.00
2019-04-30T11:40:48.617Z,360.00
2019-04-30T11:41:47.871Z,360.00
2019-04-30T11:42:47.856Z,360.00
2019-04-30T11:43:49.846Z,360.00
2019-04-30T11:44:48.780Z,360.00
2019-04-30T11:45:47.838Z,360.00
2019-04-30T11:46:49.493Z,354.38
2019-04-30T11:47:53.645Z,354.38
2019-04-30T11:48:49.059Z,354.38
2019-04-30T11:49:47.758Z,354.38
2019-04-30T11:50:49.700Z,354.38
2019-04-30T11:51:47.740Z,348.75
2019-04-30T11:52:47.741Z,348.75
2019-04-30T11:53:49.057Z,348.75
2019-04-30T11:54:55.532Z,348.75
2019-04-30T11:55:49.176Z,348.75
2019-04-30T11:56:50.313Z,343.12
2019-04-30T11:57:49.407Z,343.12
2019-04-30T11:58:48.908Z,343.12
2019-04-30T11:59:47.688Z,343.12
2019-04-30T12:00:49.332Z,343.12
2019-04-30T12:01:47.727Z,343.12
2019-04-30T12:02:52.491Z,343.12
2019-04-30T12:03:49.775Z,337.50
2019-04-30T12:04:49.402Z,337.50
2019-04-30T12:05:49.111Z,337.50
2019-04-30T12:06:47.559Z,337.50
2019-04-30T12:07:50.636Z,337.50
2019-04-30T12:08:49.178Z,337.50
2019-04-30T12:09:48.495Z,337.50
2019-04-30T12:10:47.522Z,337.50
2019-04-30T12:11:50.557Z,331.88
2019-04-30T12:12:49.527Z,331.88
2019-04-30T12:13:47.506Z,331.88
2019-04-30T12:14:49.329Z,331.88
2019-04-30T12:15:50.046Z,331.88
2019-04-30T12:16:47.559Z,331.88
2019-04-30T12:17:47.448Z,331.88
2019-04-30T12:18:48.547Z,331.88
2019-04-30T12:19:48.839Z,337.50
2019-04-30T12:20:47.418Z,331.88
2019-04-30T12:21:47.489Z,331.88
2019-04-30T12:22:49.212Z,331.88
2019-04-30T12:23:47.479Z,331.88
2019-04-30T12:24:48.869Z,331.88
2019-04-30T12:25:49.258Z,331.88
2019-04-30T12:26:48.874Z,331.88
2019-04-30T12:27:48.813Z,331.88
2019-04-30T12:28:47.403Z,326.25
2019-04-30T12:29:49.453Z,326.25
2019-04-30T12:30:48.962Z,326.25
2019-04-30T12:31:47.305Z,326.25
2019-04-30T12:32:49.225Z,331.88
2019-04-30T12:33:47.277Z,331.88
2019-04-30T12:34:47.277Z,331.88
2019-04-30T12:35:49.192Z,331.88
2019-04-30T12:36:47.228Z,326.25